createdAt,value
2016-06-03T17:22:38.662Z,1006.04
2016-06-03T17:23:38.507Z,1006.04
2016-06-03T17:24:38.495Z,1006.05
2016-06-03T17:25:38.482Z,1006.06
2016-06-03T17:26:38.687Z,1006.06
2016-06-03T17:27:38.690Z,1006.09
2016-06-03T17:28:38.678Z,1006.13
2016-06-03T17:29:38.665Z,1006.14
2016-06-03T17:30:38.667Z,1006.14
2016-06-03T17:31:38.670Z,1006.15
2016-06-03T17:32:38.657Z,1006.19
2016-06-03T17:33:38.456Z,1006.22
2016-06-03T17:34:38.460Z,1006.19
2016-06-03T17:35:38.650Z,1006.21
2016-06-03T17:36:38.653Z,1006.25
2016-06-03T17:37:38.453Z,1006.26
2016-06-03T17:38:38.439Z,1006.2
2016-06-03T17:39:38.441Z,1006.24
2016-06-03T17:40:38.444Z,1006.21
2016-06-03T17:41:38.634Z,1006.25
2016-06-03T17:42:38.449Z,1006.25
2016-06-03T17:43:38.639Z,1006.26
2016-06-03T17:44:38.642Z,1006.25
2016-06-03T17:45:38.442Z,1006.26
2016-06-03T17:46:38.444Z,1006.27
2016-06-03T17:47:38.666Z,1006.23
2016-06-03T17:48:38.747Z,1006.21
2016-06-03T17:49:38.453Z,1006.27
2016-06-03T17:50:38.643Z,1006.28
2016-06-03T17:51:38.443Z,1006.24
2016-06-03T17:52:38.632Z,1006.26
2016-06-03T17:53:38.651Z,1006.27
2016-06-03T17:54:38.435Z,1006.28
2016-06-03T17:55:38.657Z,1006.24
2016-06-03T17:56:39.065Z,1006.25
2016-06-03T17:57:38.646Z,1006.24
2016-06-03T17:58:38.445Z,1006.18
2016-06-03T17:59:38.448Z,1006.19
2016-06-03T18:00:38.451Z,1006.22
2016-06-03T18:01:38.642Z,1006.19
2016-06-03T18:02:38.645Z,1006.19
2016-06-03T18:03:38.662Z,1006.2
2016-06-03T18:04:38.664Z,1006.22
2016-06-03T18:05:38.652Z,1006.21
2016-06-03T18:06:38.656Z,1006.22
2016-06-03T18:07:38.658Z,1006.19
2016-06-03T18:08:38.456Z,1006.2
2016-06-03T18:09:38.459Z,1006.24
2016-06-03T18:10:38.666Z,1006.2
2016-06-03T18:11:38.668Z,1006.17
2016-06-03T18:12:38.467Z,1006.21
2016-06-03T18:13:38.674Z,1006.19
2016-06-03T18:14:38.458Z,1006.18
2016-06-03T18:15:38.475Z,1006.2
2016-06-03T18:16:38.525Z,1006.21
2016-06-03T18:17:38.481Z,1006.2
2016-06-03T18:18:38.688Z,1006.17
2016-06-03T18:19:38.471Z,1006.15
2016-06-03T18:20:38.677Z,1006.18
2016-06-03T18:21:38.680Z,1006.18
2016-06-03T18:22:38.526Z,1006.19
2016-06-03T18:23:38.685Z,1006.18
2016-06-03T18:24:38.484Z,1006.19
2016-06-03T18:25:38.690Z,1006.2
2016-06-03T18:26:38.693Z,1006.21
2016-06-03T18:27:38.696Z,1006.23
2016-06-03T18:28:38.496Z,1006.19
2016-06-03T18:29:38.701Z,1006.19
2016-06-03T18:30:38.704Z,1006.17
2016-06-03T18:31:38.503Z,1006.17
2016-06-03T18:32:38.506Z,1006.19
2016-06-03T18:33:38.712Z,1006.18
2016-06-03T18:34:38.715Z,1006.18
2016-06-03T18:35:38.717Z,1006.17
2016-06-03T18:36:38.720Z,1006.18
2016-06-03T18:37:38.723Z,1006.18
2016-06-03T18:38:38.725Z,1006.2
2016-06-03T18:39:38.525Z,1006.18
2016-06-03T18:40:39.106Z,1006.19
2016-06-03T18:41:38.733Z,1006.21
2016-06-03T18:42:38.533Z,1006.19
2016-06-03T18:43:38.739Z,1006.21
2016-06-03T18:44:38.539Z,1006.24
2016-06-03T18:45:38.744Z,1006.25
2016-06-03T18:46:38.746Z,1006.26
2016-06-03T18:47:38.750Z,1006.24
2016-06-03T18:48:38.753Z,1006.26
2016-06-03T18:49:38.552Z,1006.25
2016-06-03T18:50:38.554Z,1006.24
2016-06-03T18:51:38.557Z,1006.25
2016-06-03T18:52:38.560Z,1006.23
2016-06-03T18:53:38.766Z,1006.26
2016-06-03T18:54:38.768Z,1006.25
2016-06-03T18:55:38.771Z,1006.24
2016-06-03T18:56:38.742Z,1006.27
2016-06-03T18:57:38.777Z,1006.26
2016-06-03T18:58:38.779Z,1006.29
2016-06-03T18:59:38.782Z,1006.32
2016-06-03T19:00:38.582Z,1006.3
2016-06-03T19:01:38.787Z,1006.34
2016-06-03T19:02:38.586Z,1006.32
2016-06-03T19:03:38.792Z,1006.35
2016-06-03T19:04:38.795Z,1006.33
2016-06-03T19:05:38.798Z,1006.35
2016-06-03T19:06:38.598Z,1006.38
2016-06-03T19:07:38.601Z,1006.37
2016-06-03T19:08:38.603Z,1006.36
2016-06-03T19:09:38.809Z,1006.4
2016-06-03T19:10:38.811Z,1006.42
2016-06-03T19:11:38.611Z,1006.43
2016-06-03T19:12:38.817Z,1006.43
2016-06-03T19:13:38.819Z,1006.45
2016-06-03T19:14:38.822Z,1006.44
2016-06-03T19:15:38.824Z,1006.42
2016-06-03T19:16:38.828Z,1006.42
2016-06-03T19:17:38.627Z,1006.42
2016-06-03T19:18:38.630Z,1006.42
2016-06-03T19:19:38.633Z,1006.45
2016-06-03T19:20:38.636Z,1006.42
2016-06-03T19:21:38.841Z,1006.46
2016-06-03T19:22:38.905Z,1006.44
2016-06-03T19:23:38.644Z,1006.46
2016-06-03T19:24:38.646Z,1006.46
2016-06-03T19:25:38.851Z,1006.5
2016-06-03T19:26:38.854Z,1006.49
2016-06-03T19:27:38.654Z,1006.51
2016-06-03T19:28:38.859Z,1006.55
2016-06-03T19:29:38.659Z,1006.56
2016-06-03T19:30:38.662Z,1006.6
2016-06-03T19:31:38.665Z,1006.65
2016-06-03T19:32:38.887Z,1006.63
2016-06-03T19:33:38.873Z,1006.64
2016-06-03T19:34:38.673Z,1006.65
2016-06-03T19:35:38.879Z,1006.67
2016-06-03T19:36:38.897Z,1006.68
2016-06-03T19:37:38.900Z,1006.69
2016-06-03T19:38:38.887Z,1006.69
2016-06-03T19:39:38.905Z,1006.72
2016-06-03T19:40:38.892Z,1006.73
2016-06-03T19:41:38.910Z,1006.69
2016-06-03T19:42:38.709Z,1006.7
2016-06-03T19:43:38.916Z,1006.76
2016-06-03T19:44:38.902Z,1006.73
2016-06-03T19:45:38.717Z,1006.72
2016-06-03T19:46:38.908Z,1006.72
2016-06-03T19:47:38.723Z,1006.76
2016-06-03T19:48:38.930Z,1006.74
2016-06-03T19:49:38.729Z,1006.72
2016-06-03T19:50:38.935Z,1006.73
2016-06-03T19:51:38.938Z,1006.7
2016-06-03T19:52:38.736Z,1006.72
2016-06-03T19:53:38.739Z,1006.72
2016-06-03T19:54:38.742Z,1006.74
2016-06-03T19:55:38.948Z,1006.78
2016-06-03T19:56:38.747Z,1006.76
2016-06-03T19:57:38.749Z,1006.78
2016-06-03T19:58:38.957Z,1006.78
2016-06-03T19:59:38.959Z,1006.79
2016-06-03T20:00:38.962Z,1006.8
2016-06-03T20:01:38.965Z,1006.81
2016-06-03T20:02:38.967Z,1006.83
2016-06-03T20:03:38.766Z,1006.84
2016-06-03T20:04:38.973Z,1006.83
2016-06-03T20:05:38.976Z,1006.89
2016-06-03T20:06:38.773Z,1006.85
2016-06-03T20:07:38.777Z,1006.86
2016-06-03T20:08:38.779Z,1006.88
2016-06-03T20:09:38.986Z,1006.88
2016-06-03T20:10:38.989Z,1006.88
2016-06-03T20:11:38.992Z,1006.89
2016-06-03T20:12:38.994Z,1006.88
2016-06-03T20:13:38.996Z,1006.91
2016-06-03T20:14:38.796Z,1006.91
2016-06-03T20:15:39.017Z,1006.94
2016-06-03T20:16:39.005Z,1006.92
2016-06-03T20:17:38.803Z,1006.98
2016-06-03T20:18:39.010Z,1006.99
2016-06-03T20:19:39.013Z,1006.97
2016-06-03T20:20:39.016Z,1007.04
2016-06-03T20:21:38.814Z,1007
2016-06-03T20:22:38.864Z,1007.05
2016-06-03T20:23:39.038Z,1007.04
2016-06-03T20:24:39.026Z,1007
2016-06-03T20:25:38.825Z,1007.03
2016-06-03T20:26:39.547Z,1007.01
2016-06-03T20:27:38.830Z,1007.03
2016-06-03T20:28:39.037Z,1007.03
2016-06-03T20:29:38.836Z,1007.07
2016-06-03T20:30:39.043Z,1007.05
2016-06-03T20:31:38.841Z,1007.08
2016-06-03T20:32:39.047Z,1007.11
2016-06-03T20:33:38.846Z,1007.12
2016-06-03T20:34:38.865Z,1007.13
2016-06-03T20:35:39.071Z,1007.11
2016-06-03T20:36:39.074Z,1007.14
2016-06-03T20:37:39.061Z,1007.15
2016-06-03T20:38:39.064Z,1007.16
2016-06-03T20:39:39.067Z,1007.18
2016-06-03T20:40:39.069Z,1007.17
2016-06-03T20:41:38.868Z,1007.18
2016-06-03T20:42:38.870Z,1007.21
2016-06-03T20:43:38.874Z,1007.2
2016-06-03T20:44:39.096Z,1007.2
2016-06-03T20:45:39.082Z,1007.23
2016-06-03T20:46:38.882Z,1007.22
2016-06-03T20:47:38.884Z,1007.23
2016-06-03T20:48:38.887Z,1007.23
2016-06-03T20:49:39.094Z,1007.2
2016-06-03T20:50:38.909Z,1007.2
2016-06-03T20:51:39.099Z,1007.23
2016-06-03T20:52:39.102Z,1007.27
2016-06-03T20:53:38.900Z,1007.25
2016-06-03T20:54:38.903Z,1007.25
2016-06-03T20:55:39.110Z,1007.27
2016-06-03T20:56:39.113Z,1007.29
2016-06-03T20:57:39.130Z,1007.29
2016-06-03T20:58:39.118Z,1007.3
2016-06-03T20:59:38.933Z,1007.31
2016-06-03T21:00:39.123Z,1007.28
2016-06-03T21:01:38.922Z,1007.3
2016-06-03T21:02:38.940Z,1007.29
2016-06-03T21:03:38.927Z,1007.3
2016-06-03T21:04:39.134Z,1007.31
2016-06-03T21:05:39.137Z,1007.3
2016-06-03T21:06:38.951Z,1007.27
2016-06-03T21:07:38.954Z,1007.24
2016-06-03T21:08:39.145Z,1007.26
2016-06-03T21:09:39.147Z,1007.29
2016-06-03T21:10:39.150Z,1007.27
2016-06-03T21:11:39.153Z,1007.31
2016-06-03T21:12:38.967Z,1007.29
2016-06-03T21:13:39.173Z,1007.3
2016-06-03T21:14:39.161Z,1007.3
2016-06-03T21:15:39.164Z,1007.28
2016-06-03T21:16:38.962Z,1007.29
2016-06-03T21:17:39.169Z,1007.29
2016-06-03T21:18:39.171Z,1007.26
2016-06-03T21:19:39.174Z,1007.26
2016-06-03T21:20:39.177Z,1007.27
2016-06-03T21:21:39.179Z,1007.28
2016-06-03T21:22:39.197Z,1007.28
2016-06-03T21:23:38.981Z,1007.3
2016-06-03T21:24:39.188Z,1007.27
2016-06-03T21:25:39.191Z,1007.26
2016-06-03T21:26:38.989Z,1007.26
2016-06-03T21:27:39.196Z,1007.23
2016-06-03T21:28:39.198Z,1007.24
2016-06-03T21:29:38.997Z,1007.23
2016-06-03T21:30:39.000Z,1007.3
2016-06-03T21:31:39.252Z,1007.28
2016-06-03T21:32:39.021Z,1007.26
2016-06-03T21:33:39.212Z,1007.27
2016-06-03T21:34:39.011Z,1007.29
2016-06-03T21:35:39.217Z,1007.26
2016-06-03T21:36:39.220Z,1007.28
2016-06-03T21:37:39.019Z,1007.28
2016-06-03T21:38:39.226Z,1007.28
2016-06-03T21:39:39.024Z,1007.31
2016-06-03T21:40:39.824Z,1007.29
2016-06-03T21:41:39.233Z,1007.29
2016-06-03T21:42:39.032Z,1007.3
2016-06-03T21:43:39.239Z,1007.23
2016-06-03T21:44:39.053Z,1007.24
2016-06-03T21:45:39.244Z,1007.27
2016-06-03T21:46:39.043Z,1007.24
2016-06-03T21:47:39.046Z,1007.23
2016-06-03T21:48:39.252Z,1007.27
2016-06-03T21:49:39.255Z,1007.27
2016-06-03T21:50:39.258Z,1007.3
2016-06-03T21:51:39.057Z,1007.3
2016-06-03T21:52:39.263Z,1007.32
2016-06-03T21:53:39.266Z,1007.33
2016-06-03T21:54:39.268Z,1007.32
2016-06-03T21:55:39.083Z,1007.33
2016-06-03T21:56:39.274Z,1007.33
2016-06-03T21:57:39.277Z,1007.35
2016-06-03T21:58:39.279Z,1007.35
2016-06-03T21:59:39.282Z,1007.32
2016-06-03T22:00:39.285Z,1007.36
2016-06-03T22:01:39.083Z,1007.35
2016-06-03T22:02:39.290Z,1007.35
2016-06-03T22:03:39.293Z,1007.31
2016-06-03T22:04:39.091Z,1007.31
2016-06-03T22:05:39.094Z,1007.36
2016-06-03T22:06:39.096Z,1007.37
2016-06-03T22:07:39.303Z,1007.35
2016-06-03T22:08:39.306Z,1007.35
2016-06-03T22:09:39.105Z,1007.36
2016-06-03T22:10:39.982Z,1007.39
2016-06-03T22:11:39.298Z,1007.38
2016-06-03T22:12:39.317Z,1007.4
2016-06-03T22:13:39.116Z,1007.38
2016-06-03T22:14:39.322Z,1007.4
2016-06-03T22:15:39.308Z,1007.37
2016-06-03T22:16:39.327Z,1007.39
2016-06-03T22:17:39.330Z,1007.39
2016-06-03T22:18:39.333Z,1007.36
2016-06-03T22:19:39.320Z,1007.36
2016-06-03T22:20:39.322Z,1007.38
2016-06-03T22:21:39.325Z,1007.33
2016-06-03T22:22:39.140Z,1007.35
2016-06-03T22:23:39.361Z,1007.35
2016-06-03T22:24:39.333Z,1007.3
2016-06-03T22:25:39.148Z,1007.28
2016-06-03T22:26:39.338Z,1007.28
2016-06-03T22:27:39.138Z,1007.3
2016-06-03T22:28:39.141Z,1007.3
2016-06-03T22:29:39.347Z,1007.32
2016-06-03T22:30:39.349Z,1007.29
2016-06-03T22:31:39.164Z,1007.28
2016-06-03T22:32:39.354Z,1007.32
2016-06-03T22:33:39.169Z,1007.31
2016-06-03T22:34:39.360Z,1007.36
2016-06-03T22:35:39.174Z,1007.3
2016-06-03T22:36:39.163Z,1007.31
2016-06-03T22:37:39.165Z,1007.27
2016-06-03T22:38:39.167Z,1007.33
2016-06-03T22:39:39.170Z,1007.29
2016-06-03T22:40:39.392Z,1007.28
2016-06-03T22:41:39.176Z,1007.28
2016-06-03T22:42:39.179Z,1007.3
2016-06-03T22:43:39.181Z,1007.29
2016-06-03T22:44:39.184Z,1007.28
2016-06-03T22:45:39.390Z,1007.29
2016-06-03T22:46:39.392Z,1007.27
2016-06-03T22:47:39.395Z,1007.28
2016-06-03T22:48:39.195Z,1007.27
2016-06-03T22:49:39.400Z,1007.25
2016-06-03T22:50:39.200Z,1007.26
2016-06-03T22:51:39.203Z,1007.3
2016-06-03T22:52:39.408Z,1007.32
2016-06-03T22:53:39.193Z,1007.34
2016-06-03T22:54:39.414Z,1007.38
2016-06-03T22:55:40.057Z,1007.37
2016-06-03T22:56:39.700Z,1007.36
2016-06-03T22:57:39.203Z,1007.37
2016-06-03T22:58:39.206Z,1007.39
2016-06-03T22:59:39.412Z,1007.4
2016-06-03T23:00:39.210Z,1007.37
2016-06-03T23:01:39.416Z,1007.37
2016-06-03T23:02:39.216Z,1007.37
2016-06-03T23:03:39.422Z,1007.36
2016-06-03T23:04:39.221Z,1007.31
2016-06-03T23:05:39.225Z,1007.31
2016-06-03T23:06:39.430Z,1007.31
2016-06-03T23:07:39.229Z,1007.28
2016-06-03T23:08:39.436Z,1007.32
2016-06-03T23:09:39.423Z,1007.27
2016-06-03T23:10:39.723Z,1007.3
2016-06-03T23:11:39.443Z,1007.27
2016-06-03T23:12:39.446Z,1007.31
2016-06-03T23:13:39.449Z,1007.28
2016-06-03T23:14:39.452Z,1007.29
2016-06-03T23:15:39.236Z,1007.28
2016-06-03T23:16:39.239Z,1007.29
2016-06-03T23:17:39.445Z,1007.3
2016-06-03T23:18:39.245Z,1007.28
2016-06-03T23:19:39.450Z,1007.3
2016-06-03T23:20:39.453Z,1007.29
2016-06-03T23:21:39.455Z,1007.29
2016-06-03T23:22:39.458Z,1007.31
2016-06-03T23:23:39.461Z,1007.28
2016-06-03T23:24:39.463Z,1007.3
2016-06-03T23:25:39.264Z,1007.26
2016-06-03T23:26:40.094Z,1007.29
2016-06-03T23:27:39.472Z,1007.29
2016-06-03T23:28:39.271Z,1007.26
2016-06-03T23:29:39.477Z,1007.25
2016-06-03T23:30:39.494Z,1007.26
2016-06-03T23:31:39.482Z,1007.25
2016-06-03T23:32:39.485Z,1007.28
2016-06-03T23:33:39.269Z,1007.31
2016-06-03T23:34:39.474Z,1007.4
2016-06-03T23:35:39.274Z,1007.48
2016-06-03T23:36:39.495Z,1007.45
2016-06-03T23:37:39.482Z,1007.47
2016-06-03T23:38:39.485Z,1007.43
2016-06-03T23:39:39.488Z,1007.38
2016-06-03T23:40:39.288Z,1007.36
2016-06-03T23:41:39.290Z,1007.37
2016-06-03T23:42:39.293Z,1007.43
2016-06-03T23:43:39.498Z,1007.45
2016-06-03T23:44:39.298Z,1007.42
2016-06-03T23:45:39.504Z,1007.51
2016-06-03T23:46:39.507Z,1007.52
2016-06-03T23:47:39.306Z,1007.51
2016-06-03T23:48:39.512Z,1007.43
2016-06-03T23:49:39.515Z,1007.54
2016-06-03T23:50:39.314Z,1007.48
2016-06-03T23:51:39.317Z,1007.48
2016-06-03T23:52:39.320Z,1007.48
2016-06-03T23:53:39.525Z,1007.52
2016-06-03T23:54:39.528Z,1007.55
2016-06-03T23:55:39.328Z,1007.53
2016-06-03T23:56:39.314Z,1007.53
2016-06-03T23:57:39.317Z,1007.5
2016-06-03T23:58:39.523Z,1007.48
2016-06-03T23:59:39.526Z,1007.53
